createdAt,value
2019-05-25T00:01:31.933Z,5.90
2019-05-25T00:03:59.143Z,8.90
2019-05-25T00:06:26.370Z,4.77
2019-05-25T00:08:53.645Z,10.17
2019-05-25T00:11:21.210Z,10.93
2019-05-25T00:13:48.414Z,4.83
2019-05-25T00:16:15.651Z,5.93
2019-05-25T00:18:43.170Z,5.47
2019-05-25T00:21:13.647Z,5.43
2019-05-25T00:23:39.926Z,7.37
2019-05-25T00:26:07.163Z,13.70
2019-05-25T00:28:34.396Z,7.90
2019-05-25T00:31:01.599Z,4.77
2019-05-25T00:33:28.831Z,12.07
2019-05-25T00:35:56.412Z,6.10
2019-05-25T00:38:23.619Z,9.23
2019-05-25T00:40:51.101Z,8.73
2019-05-25T00:43:18.307Z,6.93
2019-05-25T00:45:45.802Z,5.17
2019-05-25T00:48:13.282Z,4.93
2019-05-25T00:50:40.516Z,10.27
2019-05-25T00:53:07.748Z,8.13
2019-05-25T00:55:34.945Z,7.40
2019-05-25T00:58:02.179Z,6.07
2019-05-25T01:00:29.723Z,12.27
2019-05-25T01:02:56.949Z,7.90
2019-05-25T01:05:28.109Z,8.57
2019-05-25T01:07:55.680Z,6.53
2019-05-25T01:10:22.950Z,6.00
2019-05-25T01:12:50.177Z,8.37
2019-05-25T01:15:17.474Z,6.67
2019-05-25T01:17:44.674Z,9.53
2019-05-25T01:20:12.271Z,10.33
2019-05-25T01:22:39.483Z,8.30
2019-05-25T01:25:06.777Z,10.53
2019-05-25T01:27:33.981Z,5.80
2019-05-25T01:30:01.600Z,8.17
2019-05-25T01:32:28.795Z,6.87
2019-05-25T01:34:56.027Z,7.83
2019-05-25T01:37:23.235Z,9.77
2019-05-25T01:39:50.466Z,9.27
2019-05-25T01:42:17.677Z,6.27
2019-05-25T01:44:44.894Z,7.07
2019-05-25T01:47:12.420Z,4.23
2019-05-25T01:49:39.648Z,8.03
2019-05-25T01:52:06.859Z,8.63
2019-05-25T01:54:34.070Z,7.77
2019-05-25T01:57:01.278Z,8.63
2019-05-25T01:59:28.571Z,6.57
2019-05-25T02:01:55.777Z,6.63
2019-05-25T02:04:23.008Z,10.50
2019-05-25T02:06:50.215Z,8.90
2019-05-25T02:09:17.441Z,11.20
2019-05-25T02:11:44.935Z,6.40
2019-05-25T02:14:12.153Z,7.53
2019-05-25T02:16:39.371Z,8.07
2019-05-25T02:19:06.662Z,3.93
2019-05-25T02:21:33.962Z,8.70
2019-05-25T02:24:01.322Z,6.83
2019-05-25T02:26:28.601Z,8.43
2019-05-25T02:28:56.118Z,6.70
2019-05-25T02:31:23.658Z,5.33
2019-05-25T02:33:50.887Z,8.43
2019-05-25T02:36:20.719Z,4.47
2019-05-25T02:38:47.311Z,6.87
2019-05-25T02:41:14.542Z,6.47
2019-05-25T02:43:42.074Z,9.97
2019-05-25T02:46:09.627Z,5.73
2019-05-25T02:48:36.839Z,6.03
2019-05-25T02:51:04.130Z,5.47
2019-05-25T02:53:31.355Z,7.73
2019-05-25T02:55:58.555Z,6.47
2019-05-25T02:58:25.790Z,5.10
2019-05-25T03:00:52.991Z,7.83
2019-05-25T03:03:20.498Z,8.33
2019-05-25T03:05:48.169Z,6.63
2019-05-25T03:08:15.406Z,4.57
2019-05-25T03:10:43.183Z,5.67
2019-05-25T03:13:10.406Z,5.07
2019-05-25T03:15:37.626Z,4.53
2019-05-25T03:18:04.866Z,4.60
2019-05-25T03:20:32.382Z,6.93
2019-05-25T03:22:59.934Z,6.00
2019-05-25T03:25:27.140Z,5.97
2019-05-25T03:27:54.364Z,6.47
2019-05-25T03:30:23.110Z,9.87
2019-05-25T03:32:50.330Z,7.23
2019-05-25T03:35:17.540Z,6.23
2019-05-25T03:37:44.769Z,6.27
2019-05-25T03:40:12.052Z,5.30
2019-05-25T03:42:39.578Z,4.97
2019-05-25T03:45:07.370Z,6.47
2019-05-25T03:47:34.579Z,4.67
2019-05-25T03:50:01.798Z,8.07
2019-05-25T03:52:29.014Z,8.50
2019-05-25T03:54:56.214Z,7.87
2019-05-25T03:57:23.445Z,12.67
2019-05-25T03:59:50.660Z,6.30
2019-05-25T04:02:17.879Z,6.87
2019-05-25T04:04:45.081Z,9.27
2019-05-25T04:07:12.313Z,6.13
2019-05-25T04:09:39.524Z,6.20
2019-05-25T04:12:07.005Z,12.10
2019-05-25T04:14:34.242Z,7.90
2019-05-25T04:17:01.446Z,8.40
2019-05-25T04:19:28.966Z,7.67
2019-05-25T04:21:56.199Z,4.80
2019-05-25T04:24:23.429Z,5.80
2019-05-25T04:26:50.675Z,10.87
2019-05-25T04:29:18.182Z,6.50
2019-05-25T04:31:45.734Z,6.90
2019-05-25T04:34:12.948Z,6.70
2019-05-25T04:36:40.174Z,9.40
2019-05-25T04:39:07.755Z,8.97
2019-05-25T04:41:34.982Z,8.13
2019-05-25T04:44:03.015Z,8.03
2019-05-25T04:46:30.458Z,8.20
2019-05-25T04:48:57.747Z,11.47
2019-05-25T04:51:24.986Z,6.53
2019-05-25T04:53:52.216Z,12.63
2019-05-25T04:56:19.487Z,10.60
2019-05-25T04:58:46.941Z,6.90
2019-05-25T05:01:14.150Z,8.83
2019-05-25T05:03:41.383Z,10.67
2019-05-25T05:06:08.593Z,10.13
2019-05-25T05:08:35.967Z,8.57
2019-05-25T05:11:03.202Z,8.83
2019-05-25T05:13:30.429Z,11.90
2019-05-25T05:15:57.662Z,11.27
2019-05-25T05:18:24.866Z,9.50
2019-05-25T05:20:52.098Z,14.63
2019-05-25T05:23:19.555Z,9.40
2019-05-25T05:25:46.770Z,8.03
2019-05-25T05:28:13.979Z,9.20
2019-05-25T05:30:41.274Z,8.63
2019-05-25T05:33:08.475Z,12.67
2019-05-25T05:35:38.885Z,15.23
2019-05-25T05:38:05.770Z,11.00
2019-05-25T05:40:33.550Z,8.17
2019-05-25T05:43:02.310Z,9.60
2019-05-25T05:45:31.054Z,12.07
2019-05-25T05:47:59.954Z,17.20
2019-05-25T05:50:27.154Z,10.73
2019-05-25T05:52:55.291Z,8.47
2019-05-25T05:55:24.033Z,14.33
2019-05-25T05:57:51.257Z,13.93
2019-05-25T06:00:18.766Z,12.23
2019-05-25T06:02:46.233Z,11.70
2019-05-25T06:05:13.471Z,14.93
2019-05-25T06:07:40.676Z,10.70
2019-05-25T06:10:08.290Z,15.80
2019-05-25T06:12:35.748Z,17.13
2019-05-25T06:15:04.268Z,14.60
2019-05-25T06:17:31.790Z,13.70
2019-05-25T06:19:59.022Z,16.27
2019-05-25T06:22:26.486Z,13.23
2019-05-25T06:24:53.722Z,12.07
2019-05-25T06:27:27.351Z,17.17
2019-05-25T06:29:50.058Z,13.60
2019-05-25T06:32:17.262Z,13.97
2019-05-25T06:34:44.489Z,11.50
2019-05-25T06:37:11.942Z,13.03
2019-05-25T06:39:39.165Z,11.40
2019-05-25T06:42:06.403Z,13.83
2019-05-25T06:44:33.635Z,15.57
2019-05-25T06:47:01.801Z,11.40
2019-05-25T06:49:29.332Z,17.73
2019-05-25T06:51:56.883Z,12.53
2019-05-25T06:54:24.091Z,9.90
2019-05-25T06:56:51.328Z,10.80
2019-05-25T06:59:18.546Z,18.17
2019-05-25T07:01:45.771Z,12.73
2019-05-25T07:04:13.241Z,13.60
2019-05-25T07:06:40.483Z,15.30
2019-05-25T07:09:08.053Z,12.87
2019-05-25T07:11:35.263Z,13.70
2019-05-25T07:14:02.495Z,14.53
2019-05-25T07:16:29.717Z,11.57
2019-05-25T07:18:56.970Z,14.67
2019-05-25T07:21:24.250Z,13.13
2019-05-25T07:23:51.459Z,16.73
2019-05-25T07:26:19.020Z,10.63
2019-05-25T07:28:46.251Z,12.93
2019-05-25T07:31:13.743Z,12.27
2019-05-25T07:33:41.288Z,12.17
2019-05-25T07:36:08.585Z,10.17
2019-05-25T07:38:35.811Z,15.57
2019-05-25T07:41:03.027Z,9.80
2019-05-25T07:43:30.226Z,13.87
2019-05-25T07:45:57.755Z,11.03
2019-05-25T07:48:24.971Z,10.47
2019-05-25T07:50:52.207Z,13.50
2019-05-25T07:53:19.443Z,10.77
2019-05-25T07:55:46.679Z,10.90
2019-05-25T07:58:18.127Z,10.73
2019-05-25T08:00:43.218Z,11.23
2019-05-25T08:03:10.422Z,15.17
2019-05-25T08:05:37.906Z,9.80
2019-05-25T08:08:05.574Z,11.43
2019-05-25T08:10:33.014Z,10.90
2019-05-25T08:13:00.480Z,12.40
2019-05-25T08:15:28.038Z,12.40
2019-05-25T08:17:55.259Z,12.73
2019-05-25T08:20:22.742Z,9.70
2019-05-25T08:22:51.132Z,13.10
2019-05-25T08:25:18.363Z,13.43
2019-05-25T08:27:45.605Z,13.33
2019-05-25T08:30:13.197Z,12.67
2019-05-25T08:32:40.743Z,13.87
2019-05-25T08:35:08.525Z,14.67
2019-05-25T08:37:35.830Z,11.67
2019-05-25T08:40:04.758Z,9.60
2019-05-25T08:42:31.991Z,14.68
2019-05-25T08:44:59.561Z,13.25
2019-05-25T08:47:26.785Z,11.78
2019-05-25T08:49:54.011Z,11.38
2019-05-25T08:52:21.229Z,11.33
2019-05-25T08:54:48.544Z,12.68
2019-05-25T08:57:18.600Z,13.22
2019-05-25T08:59:44.785Z,10.70
2019-05-25T09:02:11.988Z,9.83
2019-05-25T09:04:39.231Z,11.80
2019-05-25T09:07:06.457Z,12.75
2019-05-25T09:09:33.686Z,14.05
2019-05-25T09:12:02.456Z,15.15
2019-05-25T09:14:29.854Z,13.50
2019-05-25T09:16:57.118Z,13.43
2019-05-25T09:19:24.326Z,15.83
2019-05-25T09:22:01.986Z,12.43
2019-05-25T09:24:20.515Z,13.48
2019-05-25T09:26:47.751Z,14.60
2019-05-25T09:29:15.211Z,13.45
2019-05-25T09:31:42.767Z,16.65
2019-05-25T09:34:09.998Z,17.02
2019-05-25T09:36:37.479Z,16.17
2019-05-25T09:39:06.283Z,15.70
2019-05-25T09:41:33.515Z,17.30
2019-05-25T09:44:01.519Z,16.15
2019-05-25T09:46:28.739Z,13.08
2019-05-25T09:48:56.294Z,15.90
2019-05-25T09:51:23.855Z,17.17
2019-05-25T09:53:51.097Z,18.70
2019-05-25T09:56:18.311Z,18.57
2019-05-25T09:58:45.551Z,16.57
2019-05-25T10:01:12.774Z,17.30
2019-05-25T10:03:40.000Z,19.52
2019-05-25T10:06:11.756Z,17.45
2019-05-25T10:08:36.559Z,17.05
2019-05-25T10:11:03.799Z,16.07
2019-05-25T10:13:31.021Z,17.13
2019-05-25T10:15:58.259Z,16.13
2019-05-25T10:18:25.479Z,18.57
2019-05-25T10:20:52.719Z,17.03
2019-05-25T10:23:19.934Z,14.17
2019-05-25T10:25:47.173Z,13.67
2019-05-25T10:28:14.678Z,15.47
2019-05-25T10:30:41.895Z,13.77
2019-05-25T10:33:09.126Z,14.43
2019-05-25T10:35:36.367Z,12.97
2019-05-25T10:38:03.988Z,14.07
2019-05-25T10:40:31.232Z,12.73
2019-05-25T10:42:58.700Z,13.43
2019-05-25T10:45:25.978Z,14.23
2019-05-25T10:47:53.220Z,14.47
2019-05-25T10:50:20.575Z,13.63
2019-05-25T10:52:47.786Z,14.27
2019-05-25T10:55:15.295Z,13.80
2019-05-25T10:57:42.514Z,13.00
2019-05-25T11:00:11.115Z,13.50
2019-05-25T11:02:38.654Z,11.40
2019-05-25T11:05:06.599Z,12.63
2019-05-25T11:07:33.819Z,11.97
2019-05-25T11:10:01.671Z,12.37
2019-05-25T11:12:28.875Z,12.13
2019-05-25T11:14:56.102Z,11.67
2019-05-25T11:17:23.319Z,12.03
2019-05-25T11:19:50.547Z,11.60
2019-05-25T11:22:18.099Z,12.17
2019-05-25T11:24:45.326Z,10.93
2019-05-25T11:27:12.537Z,12.60
2019-05-25T11:29:39.871Z,11.17
2019-05-25T11:32:07.724Z,16.33
2019-05-25T11:34:35.097Z,11.30
2019-05-25T11:37:02.308Z,13.07
2019-05-25T11:39:29.542Z,11.67
2019-05-25T11:41:57.037Z,9.40
2019-05-25T11:44:24.587Z,15.43
2019-05-25T11:46:51.804Z,11.47
2019-05-25T11:49:22.564Z,13.83
2019-05-25T11:51:48.003Z,15.17
2019-05-25T11:54:15.191Z,15.63
2019-05-25T11:56:42.421Z,15.33
2019-05-25T11:59:09.640Z,12.70
2019-05-25T12:01:36.874Z,15.97
2019-05-25T12:04:04.119Z,17.00
2019-05-25T12:06:31.591Z,17.00
2019-05-25T12:08:59.143Z,15.87
2019-05-25T12:11:26.454Z,15.00
2019-05-25T12:13:53.692Z,17.17
2019-05-25T12:16:20.907Z,16.87
2019-05-25T12:18:48.155Z,18.07
2019-05-25T12:21:15.611Z,17.27
2019-05-25T12:23:42.826Z,22.17
2019-05-25T12:26:10.317Z,20.07
2019-05-25T12:28:37.525Z,23.40
2019-05-25T12:31:05.025Z,19.27
2019-05-25T12:33:32.243Z,18.97
2019-05-25T12:35:59.476Z,20.80
2019-05-25T12:38:26.713Z,20.37
2019-05-25T12:40:54.342Z,20.00
2019-05-25T12:43:21.737Z,22.10
2019-05-25T12:45:48.979Z,21.13
2019-05-25T12:48:16.506Z,18.97
2019-05-25T12:50:44.058Z,18.33
2019-05-25T12:53:11.544Z,19.93
2019-05-25T12:55:38.773Z,18.53
2019-05-25T12:58:06.478Z,18.33
2019-05-25T13:00:33.984Z,17.93
2019-05-25T13:03:01.781Z,16.83
2019-05-25T13:05:34.324Z,18.53
2019-05-25T13:07:59.019Z,18.93
2019-05-25T13:10:26.414Z,20.40
2019-05-25T13:12:53.927Z,18.03
2019-05-25T13:15:21.165Z,16.87
2019-05-25T13:17:48.394Z,19.00
2019-05-25T13:20:16.366Z,16.67
2019-05-25T13:22:43.859Z,15.00
2019-05-25T13:25:11.487Z,15.80
2019-05-25T13:27:39.259Z,14.63
2019-05-25T13:30:07.267Z,12.67
2019-05-25T13:32:34.484Z,13.47
2019-05-25T13:35:01.718Z,14.77
2019-05-25T13:37:28.939Z,11.83
2019-05-25T13:39:56.473Z,11.43
2019-05-25T13:42:23.746Z,12.13
2019-05-25T13:44:50.992Z,12.30
2019-05-25T13:47:18.229Z,11.47
2019-05-25T13:49:45.447Z,11.93
2019-05-25T13:52:12.675Z,11.03
2019-05-25T13:54:39.902Z,10.97
2019-05-25T13:57:07.117Z,11.47
2019-05-25T13:59:34.678Z,11.20
2019-05-25T14:02:01.881Z,10.03
2019-05-25T14:04:29.390Z,11.10
2019-05-25T14:06:56.614Z,9.43
2019-05-25T14:09:23.840Z,9.63
2019-05-25T14:11:51.346Z,9.33
2019-05-25T14:14:18.798Z,8.80
2019-05-25T14:16:46.011Z,8.27
2019-05-25T14:19:13.238Z,11.43
2019-05-25T14:21:40.467Z,7.17
2019-05-25T14:24:09.577Z,9.00
2019-05-25T14:26:37.179Z,9.77
2019-05-25T14:29:04.420Z,8.13
2019-05-25T14:31:45.037Z,9.37
2019-05-25T14:34:01.612Z,14.87
2019-05-25T14:36:29.178Z,6.33
2019-05-25T14:38:56.410Z,7.27
2019-05-25T14:41:23.891Z,6.13
2019-05-25T14:43:51.145Z,7.57
2019-05-25T14:46:27.267Z,7.30
2019-05-25T14:48:47.315Z,6.30
2019-05-25T14:51:14.529Z,5.57
2019-05-25T14:53:41.763Z,6.63
2019-05-25T14:56:08.967Z,5.93
2019-05-25T14:58:36.272Z,5.87
2019-05-25T15:01:03.529Z,4.13
2019-05-25T15:03:30.763Z,4.93
2019-05-25T15:05:57.966Z,7.10
2019-05-25T15:08:25.205Z,6.43
2019-05-25T15:10:52.406Z,5.30
2019-05-25T15:13:19.647Z,5.80
2019-05-25T15:15:46.862Z,3.57
2019-05-25T15:18:14.075Z,5.87
2019-05-25T15:20:41.775Z,4.47
2019-05-25T15:23:09.008Z,8.90
2019-05-25T15:25:36.216Z,3.97
2019-05-25T15:28:03.447Z,7.70
2019-05-25T15:30:30.664Z,8.10
2019-05-25T15:32:57.890Z,4.50
2019-05-25T15:35:25.083Z,5.97
2019-05-25T15:37:52.305Z,6.40
2019-05-25T15:40:19.666Z,6.60
2019-05-25T15:42:47.222Z,5.20
2019-05-25T15:45:14.594Z,7.40
2019-05-25T15:47:42.130Z,5.17
2019-05-25T15:50:10.314Z,6.47
2019-05-25T15:52:37.513Z,6.10
2019-05-25T15:55:07.955Z,5.57
2019-05-25T15:57:35.451Z,3.73
2019-05-25T16:00:04.215Z,5.53
2019-05-25T16:02:36.746Z,4.63
2019-05-25T16:05:00.670Z,3.90
2019-05-25T16:07:28.983Z,5.17
2019-05-25T16:09:56.192Z,5.00
2019-05-25T16:12:23.759Z,4.83
2019-05-25T16:14:50.977Z,4.70
2019-05-25T16:17:18.394Z,6.30
2019-05-25T16:19:45.587Z,4.67
2019-05-25T16:22:12.817Z,4.73
2019-05-25T16:24:40.048Z,5.83
2019-05-25T16:27:07.588Z,6.23
2019-05-25T16:29:35.139Z,5.23
2019-05-25T16:32:02.747Z,6.27
2019-05-25T16:34:29.969Z,5.27
2019-05-25T16:36:57.557Z,9.67
2019-05-25T16:39:25.063Z,5.27
2019-05-25T16:41:52.286Z,4.37
2019-05-25T16:44:19.495Z,4.83
2019-05-25T16:46:47.023Z,7.00
2019-05-25T16:49:14.254Z,5.10
2019-05-25T16:51:41.477Z,5.57
2019-05-25T16:54:08.700Z,5.63
2019-05-25T16:56:36.911Z,4.17
2019-05-25T16:59:04.214Z,6.30
2019-05-25T17:01:47.038Z,7.03
2019-05-25T17:04:00.761Z,6.63
2019-05-25T17:06:27.986Z,12.10
2019-05-25T17:08:56.276Z,5.27
2019-05-25T17:11:23.775Z,7.67
2019-05-25T17:13:50.996Z,7.23
2019-05-25T17:16:18.220Z,5.07
2019-05-25T17:18:45.418Z,5.50
2019-05-25T17:21:12.648Z,7.57
2019-05-25T17:23:39.850Z,5.53
2019-05-25T17:26:07.089Z,5.80
2019-05-25T17:28:34.359Z,8.43
2019-05-25T17:31:01.851Z,9.80
2019-05-25T17:33:44.672Z,7.10
2019-05-25T17:35:58.009Z,4.10
2019-05-25T17:38:25.543Z,5.97
2019-05-25T17:40:53.100Z,6.77
2019-05-25T17:43:20.313Z,4.77
2019-05-25T17:45:47.611Z,7.03
2019-05-25T17:48:14.814Z,11.97
2019-05-25T17:50:42.061Z,9.33
2019-05-25T17:53:09.261Z,9.43
2019-05-25T17:55:36.489Z,6.40
2019-05-25T17:58:03.899Z,11.20
2019-05-25T18:00:38.277Z,6.97
2019-05-25T18:03:05.507Z,7.80
2019-05-25T18:05:32.996Z,10.37
2019-05-25T18:08:00.595Z,6.50
2019-05-25T18:10:28.068Z,7.40
2019-05-25T18:12:55.330Z,3.70
2019-05-25T18:15:22.542Z,5.67
2019-05-25T18:17:49.754Z,10.03
2019-05-25T18:20:16.986Z,5.93
2019-05-25T18:22:44.463Z,4.90
2019-05-25T18:25:11.761Z,7.33
2019-05-25T18:27:39.035Z,7.13
2019-05-25T18:30:07.255Z,7.97
2019-05-25T18:32:34.448Z,7.27
2019-05-25T18:35:01.671Z,9.40
2019-05-25T18:37:29.208Z,6.97
2019-05-25T18:39:56.760Z,7.83
2019-05-25T18:42:24.044Z,7.43
2019-05-25T18:44:51.271Z,6.20
2019-05-25T18:47:18.487Z,4.93
2019-05-25T18:49:45.703Z,8.10
2019-05-25T18:52:12.921Z,6.60
2019-05-25T18:54:40.147Z,3.83
2019-05-25T18:57:09.543Z,8.50
2019-05-25T18:59:36.294Z,7.23
2019-05-25T19:02:03.570Z,6.57
2019-05-25T19:04:45.016Z,6.17
2019-05-25T19:06:59.726Z,6.60
2019-05-25T19:09:26.963Z,7.83
2019-05-25T19:11:54.172Z,8.37
2019-05-25T19:14:21.406Z,5.93
2019-05-25T19:16:48.635Z,8.27
2019-05-25T19:19:15.854Z,8.57
2019-05-25T19:21:43.058Z,12.13
2019-05-25T19:24:10.635Z,9.40
2019-05-25T19:26:37.849Z,11.73
2019-05-25T19:29:05.891Z,13.47
2019-05-25T19:31:33.278Z,12.73
2019-05-25T19:34:00.525Z,9.73
2019-05-25T19:36:27.815Z,8.47
2019-05-25T19:38:55.025Z,12.30
2019-05-25T19:41:22.257Z,7.00
2019-05-25T19:43:49.470Z,9.50
2019-05-25T19:46:16.699Z,11.03
2019-05-25T19:48:43.935Z,11.13
2019-05-25T19:51:11.140Z,11.60
2019-05-25T19:53:38.362Z,11.67
2019-05-25T19:56:05.571Z,10.93
2019-05-25T19:58:32.803Z,7.13
2019-05-25T20:01:00.026Z,7.97
2019-05-25T20:03:27.503Z,8.73
2019-05-25T20:05:55.063Z,9.73
2019-05-25T20:08:22.281Z,13.23
2019-05-25T20:10:49.770Z,13.27
2019-05-25T20:13:17.331Z,9.33
2019-05-25T20:15:44.534Z,8.70
2019-05-25T20:18:12.046Z,10.07
2019-05-25T20:20:39.499Z,11.33
2019-05-25T20:23:06.727Z,13.50
2019-05-25T20:25:33.926Z,7.83
2019-05-25T20:28:01.699Z,10.47
2019-05-25T20:30:28.918Z,12.47
2019-05-25T20:32:56.160Z,9.70
2019-05-25T20:35:32.361Z,10.30
2019-05-25T20:37:52.328Z,7.20
2019-05-25T20:40:19.548Z,9.87
2019-05-25T20:42:46.746Z,9.57
2019-05-25T20:45:14.241Z,7.60
2019-05-25T20:47:41.446Z,10.07
2019-05-25T20:50:08.943Z,10.13
2019-05-25T20:52:36.517Z,14.23
2019-05-25T20:55:05.093Z,10.23
2019-05-25T20:57:32.304Z,6.40
2019-05-25T20:59:59.526Z,11.53
2019-05-25T21:02:27.067Z,8.20
2019-05-25T21:04:54.304Z,9.97
2019-05-25T21:07:21.530Z,13.03
2019-05-25T21:09:48.813Z,7.60
2019-05-25T21:12:16.026Z,9.57
2019-05-25T21:14:43.243Z,11.47
2019-05-25T21:17:10.791Z,12.80
2019-05-25T21:19:38.022Z,13.97
2019-05-25T21:22:05.591Z,12.23
2019-05-25T21:24:32.802Z,15.57
2019-05-25T21:27:00.030Z,8.03
2019-05-25T21:29:27.241Z,8.40
2019-05-25T21:31:54.804Z,12.57
2019-05-25T21:34:22.019Z,7.43
2019-05-25T21:36:49.237Z,9.47
2019-05-25T21:39:16.437Z,13.07
2019-05-25T21:41:43.670Z,9.07
2019-05-25T21:44:10.899Z,7.80
2019-05-25T21:46:38.098Z,7.60
2019-05-25T21:49:05.674Z,8.80
2019-05-25T21:51:32.899Z,9.53
2019-05-25T21:54:00.102Z,9.20
2019-05-25T21:56:27.627Z,9.67
2019-05-25T21:58:54.840Z,10.83
2019-05-25T22:01:22.134Z,11.83
2019-05-25T22:03:49.345Z,10.73
2019-05-25T22:06:24.137Z,9.77
2019-05-25T22:08:45.528Z,11.83
2019-05-25T22:11:13.078Z,9.37
2019-05-25T22:13:40.300Z,9.50
2019-05-25T22:16:07.517Z,9.37
2019-05-25T22:18:34.731Z,10.93
2019-05-25T22:21:02.290Z,11.23
2019-05-25T22:23:29.517Z,12.43
2019-05-25T22:25:56.735Z,11.10
2019-05-25T22:28:24.287Z,8.73
2019-05-25T22:30:51.535Z,11.53
2019-05-25T22:33:18.763Z,10.33
2019-05-25T22:35:46.310Z,10.83
2019-05-25T22:38:13.537Z,14.20
2019-05-25T22:40:41.124Z,12.03
2019-05-25T22:43:08.363Z,9.40
2019-05-25T22:45:35.599Z,10.50
2019-05-25T22:48:02.806Z,16.50
2019-05-25T22:50:30.040Z,14.73
2019-05-25T22:52:57.247Z,12.17
2019-05-25T22:55:24.483Z,10.23
2019-05-25T22:57:51.692Z,9.13
2019-05-25T23:00:19.795Z,13.40
2019-05-25T23:02:47.002Z,10.93
2019-05-25T23:05:14.222Z,10.97
2019-05-25T23:07:41.715Z,11.67
2019-05-25T23:10:10.209Z,13.93
2019-05-25T23:12:37.477Z,9.50
2019-05-25T23:15:06.092Z,10.97
2019-05-25T23:17:33.314Z,12.50
2019-05-25T23:20:00.538Z,12.87
2019-05-25T23:22:28.083Z,15.93
2019-05-25T23:24:55.295Z,13.23
2019-05-25T23:27:22.526Z,12.63
2019-05-25T23:29:49.763Z,17.53
2019-05-25T23:32:16.999Z,11.37
2019-05-25T23:34:44.206Z,13.40
2019-05-25T23:37:14.796Z,13.87
2019-05-25T23:39:40.898Z,14.63
2019-05-25T23:42:08.136Z,11.77
2019-05-25T23:44:35.594Z,14.50
2019-05-25T23:47:02.845Z,13.47
2019-05-25T23:49:30.307Z,15.23
2019-05-25T23:51:57.531Z,15.37
2019-05-25T23:54:27.799Z,13.10
2019-05-25T23:56:55.049Z,17.33
2019-05-25T23:59:22.249Z,15.50
